sensor_id;sensor_type;location;lat;lon;timestamp;temperature;humidity
52867;DHT22;38739;53.324;6.862;2023-07-20T00:01:23;15.70;99.90
52867;DHT22;38739;53.324;6.862;2023-07-20T00:03:49;15.70;99.90
52867;DHT22;38739;53.324;6.862;2023-07-20T00:06:21;15.70;99.90
52867;DHT22;38739;53.324;6.862;2023-07-20T00:08:47;15.70;99.90
52867;DHT22;38739;53.324;6.862;2023-07-20T00:11:12;15.70;99.90
52867;DHT22;38739;53.324;6.862;2023-07-20T00:13:39;15.70;99.90
52867;DHT22;38739;53.324;6.862;2023-07-20T00:16:05;15.70;99.90
52867;DHT22;38739;53.324;6.862;2023-07-20T00:18:31;15.60;99.90
52867;DHT22;38739;53.324;6.862;2023-07-20T00:20:57;15.60;99.90
52867;DHT22;38739;53.324;6.862;2023-07-20T00:23:22;15.60;99.90
52867;DHT22;38739;53.324;6.862;2023-07-20T00:25:48;15.60;99.90
52867;DHT22;38739;53.324;6.862;2023-07-20T00:28:14;15.50;99.90
52867;DHT22;38739;53.324;6.862;2023-07-20T00:30:40;15.50;99.90
52867;DHT22;38739;53.324;6.862;2023-07-20T00:33:11;15.50;99.90
52867;DHT22;38739;53.324;6.862;2023-07-20T00:35:37;15.50;99.90
52867;DHT22;38739;53.324;6.862;2023-07-20T00:38:04;15.40;99.90
52867;DHT22;38739;53.324;6.862;2023-07-20T00:40:36;15.40;99.90
52867;DHT22;38739;53.324;6.862;2023-07-20T00:43:02;15.40;99.90
52867;DHT22;38739;53.324;6.862;2023-07-20T00:45:29;15.30;99.90
52867;DHT22;38739;53.324;6.862;2023-07-20T00:47:56;15.30;99.90
52867;DHT22;38739;53.324;6.862;2023-07-20T00:50:22;15.30;99.90
52867;DHT22;38739;53.324;6.862;2023-07-20T00:52:48;15.30;99.90
52867;DHT22;38739;53.324;6.862;2023-07-20T00:55:14;15.30;99.90
52867;DHT22;38739;53.324;6.862;2023-07-20T00:57:40;15.20;99.90
52867;DHT22;38739;53.324;6.862;2023-07-20T01:00:07;15.20;99.90
52867;DHT22;38739;53.324;6.862;2023-07-20T01:02:33;15.20;99.90
52867;DHT22;38739;53.324;6.862;2023-07-20T01:04:59;15.10;99.90
52867;DHT22;38739;53.324;6.862;2023-07-20T01:07:26;15.10;99.90
52867;DHT22;38739;53.324;6.862;2023-07-20T01:12:48;14.90;99.90
52867;DHT22;38739;53.324;6.862;2023-07-20T01:15:14;14.90;99.90
52867;DHT22;38739;53.324;6.862;2023-07-20T01:17:40;14.80;99.90
52867;DHT22;38739;53.324;6.862;2023-07-20T01:20:07;14.80;99.90
52867;DHT22;38739;53.324;6.862;2023-07-20T01:30:56;14.40;99.90
52867;DHT22;38739;53.324;6.862;2023-07-20T01:33:25;14.40;99.90
52867;DHT22;38739;53.324;6.862;2023-07-20T01:35:56;14.30;99.90
52867;DHT22;38739;53.324;6.862;2023-07-20T01:38:23;14.20;99.90
52867;DHT22;38739;53.324;6.862;2023-07-20T01:40:50;14.20;99.90
52867;DHT22;38739;53.324;6.862;2023-07-20T01:43:17;14.10;99.90
52867;DHT22;38739;53.324;6.862;2023-07-20T01:45:43;14.10;99.90
52867;DHT22;38739;53.324;6.862;2023-07-20T01:48:09;14.00;99.90
52867;DHT22;38739;53.324;6.862;2023-07-20T01:50:35;14.00;99.90
52867;DHT22;38739;53.324;6.862;2023-07-20T01:53:01;13.90;99.90
52867;DHT22;38739;53.324;6.862;2023-07-20T01:55:27;13.80;99.90
52867;DHT22;38739;53.324;6.862;2023-07-20T01:57:53;13.80;99.90
52867;DHT22;38739;53.324;6.862;2023-07-20T02:00:19;13.70;99.90
52867;DHT22;38739;53.324;6.862;2023-07-20T02:02:47;13.70;99.90
52867;DHT22;38739;53.324;6.862;2023-07-20T02:05:12;13.60;99.90
52867;DHT22;38739;53.324;6.862;2023-07-20T02:07:38;13.50;99.90
52867;DHT22;38739;53.324;6.862;2023-07-20T02:10:05;13.40;99.90
52867;DHT22;38739;53.324;6.862;2023-07-20T02:12:31;13.40;99.90
52867;DHT22;38739;53.324;6.862;2023-07-20T02:14:57;13.30;99.90
52867;DHT22;38739;53.324;6.862;2023-07-20T02:17:22;13.30;99.90
52867;DHT22;38739;53.324;6.862;2023-07-20T02:19:52;13.30;99.90
52867;DHT22;38739;53.324;6.862;2023-07-20T02:22:18;13.20;99.90
52867;DHT22;38739;53.324;6.862;2023-07-20T02:24:43;13.20;99.90
52867;DHT22;38739;53.324;6.862;2023-07-20T02:27:09;13.20;99.90
52867;DHT22;38739;53.324;6.862;2023-07-20T02:29:35;13.20;99.90
52867;DHT22;38739;53.324;6.862;2023-07-20T02:32:02;13.10;99.90
52867;DHT22;38739;53.324;6.862;2023-07-20T02:34:27;13.10;99.90
52867;DHT22;38739;53.324;6.862;2023-07-20T02:36:53;13.10;99.90
52867;DHT22;38739;53.324;6.862;2023-07-20T02:39:21;13.10;99.90
52867;DHT22;38739;53.324;6.862;2023-07-20T02:41:47;13.00;99.90
52867;DHT22;38739;53.324;6.862;2023-07-20T02:44:14;13.00;99.90
52867;DHT22;38739;53.324;6.862;2023-07-20T02:46:40;12.90;99.90
52867;DHT22;38739;53.324;6.862;2023-07-20T02:49:06;12.90;99.90
52867;DHT22;38739;53.324;6.862;2023-07-20T02:51:32;12.90;99.90
52867;DHT22;38739;53.324;6.862;2023-07-20T02:53:57;12.90;99.90
52867;DHT22;38739;53.324;6.862;2023-07-20T02:56:23;12.90;99.90
52867;DHT22;38739;53.324;6.862;2023-07-20T02:58:49;12.80;99.90
52867;DHT22;38739;53.324;6.862;2023-07-20T03:01:14;12.80;99.90
52867;DHT22;38739;53.324;6.862;2023-07-20T03:03:41;12.80;99.90
52867;DHT22;38739;53.324;6.862;2023-07-20T03:06:07;12.80;99.90
52867;DHT22;38739;53.324;6.862;2023-07-20T03:08:35;12.70;99.90
52867;DHT22;38739;53.324;6.862;2023-07-20T03:11:01;12.70;99.90
52867;DHT22;38739;53.324;6.862;2023-07-20T03:13:27;12.70;99.90
52867;DHT22;38739;53.324;6.862;2023-07-20T03:15:53;12.70;99.90
52867;DHT22;38739;53.324;6.862;2023-07-20T03:18:19;12.70;99.90
52867;DHT22;38739;53.324;6.862;2023-07-20T03:20:44;12.60;99.90
52867;DHT22;38739;53.324;6.862;2023-07-20T03:23:11;12.60;99.90
52867;DHT22;38739;53.324;6.862;2023-07-20T03:25:36;12.60;99.90
52867;DHT22;38739;53.324;6.862;2023-07-20T03:28:03;12.50;99.90
52867;DHT22;38739;53.324;6.862;2023-07-20T03:30:29;12.60;99.90
52867;DHT22;38739;53.324;6.862;2023-07-20T03:32:54;12.50;99.90
52867;DHT22;38739;53.324;6.862;2023-07-20T03:35:20;12.50;99.90
52867;DHT22;38739;53.324;6.862;2023-07-20T03:37:46;12.50;99.90
52867;DHT22;38739;53.324;6.862;2023-07-20T03:40:11;12.40;99.90
52867;DHT22;38739;53.324;6.862;2023-07-20T03:42:37;12.40;99.90
52867;DHT22;38739;53.324;6.862;2023-07-20T03:45:05;12.40;99.90
52867;DHT22;38739;53.324;6.862;2023-07-20T03:47:31;12.40;99.90
52867;DHT22;38739;53.324;6.862;2023-07-20T03:49:57;12.40;99.90
52867;DHT22;38739;53.324;6.862;2023-07-20T03:52:23;12.40;99.90
52867;DHT22;38739;53.324;6.862;2023-07-20T03:54:49;12.40;99.90
52867;DHT22;38739;53.324;6.862;2023-07-20T03:57:17;12.40;99.90
52867;DHT22;38739;53.324;6.862;2023-07-20T03:59:45;12.40;99.90
52867;DHT22;38739;53.324;6.862;2023-07-20T04:02:11;12.50;99.90
52867;DHT22;38739;53.324;6.862;2023-07-20T04:04:37;12.60;99.90
52867;DHT22;38739;53.324;6.862;2023-07-20T04:07:04;12.60;99.90
52867;DHT22;38739;53.324;6.862;2023-07-20T04:09:31;12.70;99.90
52867;DHT22;38739;53.324;6.862;2023-07-20T04:11:57;12.70;99.90
52867;DHT22;38739;53.324;6.862;2023-07-20T04:14:23;12.70;99.90
52867;DHT22;38739;53.324;6.862;2023-07-20T04:16:48;12.70;99.90
52867;DHT22;38739;53.324;6.862;2023-07-20T04:19:14;12.60;99.90
52867;DHT22;38739;53.324;6.862;2023-07-20T04:21:40;12.60;99.90
52867;DHT22;38739;53.324;6.862;2023-07-20T04:24:07;12.70;99.90
52867;DHT22;38739;53.324;6.862;2023-07-20T04:26:32;12.70;99.90
52867;DHT22;38739;53.324;6.862;2023-07-20T04:28:58;12.70;99.90
52867;DHT22;38739;53.324;6.862;2023-07-20T04:31:25;12.80;99.90
52867;DHT22;38739;53.324;6.862;2023-07-20T04:33:50;12.80;99.90
52867;DHT22;38739;53.324;6.862;2023-07-20T04:36:16;12.80;99.90
52867;DHT22;38739;53.324;6.862;2023-07-20T04:38:47;12.90;99.90
52867;DHT22;38739;53.324;6.862;2023-07-20T04:41:13;12.90;99.90
52867;DHT22;38739;53.324;6.862;2023-07-20T04:43:43;12.80;99.90
52867;DHT22;38739;53.324;6.862;2023-07-20T04:46:10;12.80;99.90
52867;DHT22;38739;53.324;6.862;2023-07-20T04:48:36;12.80;99.90
52867;DHT22;38739;53.324;6.862;2023-07-20T04:51:03;12.80;99.90
52867;DHT22;38739;53.324;6.862;2023-07-20T04:53:29;12.80;99.90
52867;DHT22;38739;53.324;6.862;2023-07-20T04:55:54;12.80;99.90
52867;DHT22;38739;53.324;6.862;2023-07-20T04:58:22;12.80;99.90
52867;DHT22;38739;53.324;6.862;2023-07-20T05:00:49;12.80;99.90
52867;DHT22;38739;53.324;6.862;2023-07-20T05:03:14;12.90;99.90
52867;DHT22;38739;53.324;6.862;2023-07-20T05:05:40;12.90;99.90
52867;DHT22;38739;53.324;6.862;2023-07-20T05:08:06;12.90;99.90
52867;DHT22;38739;53.324;6.862;2023-07-20T05:10:32;13.00;99.90
52867;DHT22;38739;53.324;6.862;2023-07-20T05:12:58;13.00;99.90
52867;DHT22;38739;53.324;6.862;2023-07-20T05:15:24;13.00;99.90
52867;DHT22;38739;53.324;6.862;2023-07-20T05:17:50;13.00;99.90
52867;DHT22;38739;53.324;6.862;2023-07-20T05:20:15;13.00;99.90
52867;DHT22;38739;53.324;6.862;2023-07-20T05:22:42;13.10;99.90
52867;DHT22;38739;53.324;6.862;2023-07-20T05:25:09;13.10;99.90
52867;DHT22;38739;53.324;6.862;2023-07-20T05:27:39;13.10;99.90
52867;DHT22;38739;53.324;6.862;2023-07-20T05:30:06;13.20;99.90
52867;DHT22;38739;53.324;6.862;2023-07-20T05:32:33;13.20;99.90
52867;DHT22;38739;53.324;6.862;2023-07-20T05:34:58;13.20;99.90
52867;DHT22;38739;53.324;6.862;2023-07-20T05:37:24;13.30;99.90
52867;DHT22;38739;53.324;6.862;2023-07-20T05:39:50;13.30;99.90
52867;DHT22;38739;53.324;6.862;2023-07-20T05:42:16;13.20;99.90
52867;DHT22;38739;53.324;6.862;2023-07-20T05:44:42;13.30;99.90
52867;DHT22;38739;53.324;6.862;2023-07-20T05:47:08;13.30;99.90
52867;DHT22;38739;53.324;6.862;2023-07-20T05:49:34;13.40;99.90
52867;DHT22;38739;53.324;6.862;2023-07-20T05:52:00;13.40;99.90
52867;DHT22;38739;53.324;6.862;2023-07-20T05:54:27;13.50;99.90
52867;DHT22;38739;53.324;6.862;2023-07-20T05:56:53;13.50;99.90
52867;DHT22;38739;53.324;6.862;2023-07-20T05:59:19;13.60;99.90
52867;DHT22;38739;53.324;6.862;2023-07-20T06:01:49;13.70;99.90
52867;DHT22;38739;53.324;6.862;2023-07-20T06:04:15;13.70;99.90
52867;DHT22;38739;53.324;6.862;2023-07-20T06:06:41;13.80;99.90
52867;DHT22;38739;53.324;6.862;2023-07-20T06:09:07;13.80;99.90
52867;DHT22;38739;53.324;6.862;2023-07-20T06:11:40;13.90;99.90
52867;DHT22;38739;53.324;6.862;2023-07-20T06:14:06;14.00;99.90
52867;DHT22;38739;53.324;6.862;2023-07-20T06:16:31;14.00;99.90
52867;DHT22;38739;53.324;6.862;2023-07-20T06:18:58;14.10;99.90
52867;DHT22;38739;53.324;6.862;2023-07-20T06:21:23;14.10;99.90
52867;DHT22;38739;53.324;6.862;2023-07-20T06:23:49;14.20;99.90
52867;DHT22;38739;53.324;6.862;2023-07-20T06:26:15;14.30;99.90
52867;DHT22;38739;53.324;6.862;2023-07-20T06:28:41;14.30;99.90
52867;DHT22;38739;53.324;6.862;2023-07-20T06:31:07;14.40;99.90
52867;DHT22;38739;53.324;6.862;2023-07-20T06:33:32;14.40;99.90
52867;DHT22;38739;53.324;6.862;2023-07-20T06:36:00;14.50;99.90
52867;DHT22;38739;53.324;6.862;2023-07-20T06:38:25;14.70;99.90
52867;DHT22;38739;53.324;6.862;2023-07-20T06:40:51;14.80;99.90
52867;DHT22;38739;53.324;6.862;2023-07-20T06:43:17;14.90;99.90
52867;DHT22;38739;53.324;6.862;2023-07-20T06:45:43;15.10;99.90
52867;DHT22;38739;53.324;6.862;2023-07-20T06:48:09;15.30;99.90
52867;DHT22;38739;53.324;6.862;2023-07-20T06:50:35;15.50;99.90
52867;DHT22;38739;53.324;6.862;2023-07-20T06:53:01;15.70;99.90
52867;DHT22;38739;53.324;6.862;2023-07-20T06:55:29;16.00;99.90
52867;DHT22;38739;53.324;6.862;2023-07-20T06:57:55;16.30;99.90
52867;DHT22;38739;53.324;6.862;2023-07-20T07:00:20;16.40;99.90
52867;DHT22;38739;53.324;6.862;2023-07-20T07:02:46;16.40;99.90
52867;DHT22;38739;53.324;6.862;2023-07-20T07:05:12;16.40;99.90
52867;DHT22;38739;53.324;6.862;2023-07-20T07:07:40;16.20;99.90
52867;DHT22;38739;53.324;6.862;2023-07-20T07:10:06;16.00;99.90
52867;DHT22;38739;53.324;6.862;2023-07-20T07:12:32;16.00;99.90
52867;DHT22;38739;53.324;6.862;2023-07-20T07:14:58;15.90;99.90
52867;DHT22;38739;53.324;6.862;2023-07-20T07:17:24;15.80;99.90
52867;DHT22;38739;53.324;6.862;2023-07-20T07:19:51;15.90;99.90
52867;DHT22;38739;53.324;6.862;2023-07-20T07:22:19;16.20;99.90
52867;DHT22;38739;53.324;6.862;2023-07-20T07:24:44;16.50;99.90
52867;DHT22;38739;53.324;6.862;2023-07-20T07:27:10;16.70;99.90
52867;DHT22;38739;53.324;6.862;2023-07-20T07:29:36;16.70;99.90
52867;DHT22;38739;53.324;6.862;2023-07-20T07:32:02;16.70;99.90
52867;DHT22;38739;53.324;6.862;2023-07-20T07:34:28;16.70;99.90
52867;DHT22;38739;53.324;6.862;2023-07-20T07:36:54;16.70;99.90
52867;DHT22;38739;53.324;6.862;2023-07-20T07:39:19;16.60;99.90
52867;DHT22;38739;53.324;6.862;2023-07-20T07:41:45;16.60;99.90
52867;DHT22;38739;53.324;6.862;2023-07-20T07:44:11;16.60;99.90
52867;DHT22;38739;53.324;6.862;2023-07-20T07:46:37;16.50;99.90
52867;DHT22;38739;53.324;6.862;2023-07-20T07:49:02;16.50;99.90
52867;DHT22;38739;53.324;6.862;2023-07-20T07:51:29;16.60;99.90
52867;DHT22;38739;53.324;6.862;2023-07-20T07:53:55;16.70;99.90
52867;DHT22;38739;53.324;6.862;2023-07-20T07:56:21;16.80;99.90
52867;DHT22;38739;53.324;6.862;2023-07-20T07:58:50;16.80;99.90
52867;DHT22;38739;53.324;6.862;2023-07-20T08:01:17;16.90;99.90
52867;DHT22;38739;53.324;6.862;2023-07-20T08:03:44;16.90;99.90
52867;DHT22;38739;53.324;6.862;2023-07-20T08:06:13;16.80;99.90
52867;DHT22;38739;53.324;6.862;2023-07-20T08:08:39;16.80;99.90
52867;DHT22;38739;53.324;6.862;2023-07-20T08:11:05;16.80;99.90
52867;DHT22;38739;53.324;6.862;2023-07-20T08:13:31;16.90;99.90
52867;DHT22;38739;53.324;6.862;2023-07-20T08:15:58;17.20;99.90
52867;DHT22;38739;53.324;6.862;2023-07-20T08:18:23;17.40;99.90
52867;DHT22;38739;53.324;6.862;2023-07-20T08:20:49;17.70;99.90
52867;DHT22;38739;53.324;6.862;2023-07-20T08:23:15;17.90;99.90
52867;DHT22;38739;53.324;6.862;2023-07-20T08:25:41;17.80;99.90
52867;DHT22;38739;53.324;6.862;2023-07-20T08:28:16;17.90;99.90
52867;DHT22;38739;53.324;6.862;2023-07-20T08:30:43;18.10;99.90
52867;DHT22;38739;53.324;6.862;2023-07-20T08:33:10;18.30;99.90
52867;DHT22;38739;53.324;6.862;2023-07-20T08:35:36;18.60;99.90
52867;DHT22;38739;53.324;6.862;2023-07-20T08:38:02;18.90;99.90
52867;DHT22;38739;53.324;6.862;2023-07-20T08:40:39;19.10;99.90
52867;DHT22;38739;53.324;6.862;2023-07-20T08:43:05;19.30;99.90
52867;DHT22;38739;53.324;6.862;2023-07-20T08:45:33;19.40;99.90
52867;DHT22;38739;53.324;6.862;2023-07-20T08:48:00;19.30;99.90
52867;DHT22;38739;53.324;6.862;2023-07-20T08:50:30;19.40;99.90
52867;DHT22;38739;53.324;6.862;2023-07-20T08:52:58;19.60;99.90
52867;DHT22;38739;53.324;6.862;2023-07-20T08:55:28;19.90;99.90
52867;DHT22;38739;53.324;6.862;2023-07-20T08:57:56;20.20;99.90
52867;DHT22;38739;53.324;6.862;2023-07-20T09:00:23;20.30;99.90
52867;DHT22;38739;53.324;6.862;2023-07-20T09:02:53;20.40;99.90
52867;DHT22;38739;53.324;6.862;2023-07-20T09:05:19;20.30;99.90
52867;DHT22;38739;53.324;6.862;2023-07-20T09:07:46;20.40;99.90
52867;DHT22;38739;53.324;6.862;2023-07-20T09:10:12;20.60;99.90
52867;DHT22;38739;53.324;6.862;2023-07-20T09:12:42;20.80;99.90
52867;DHT22;38739;53.324;6.862;2023-07-20T09:15:09;21.10;99.90
52867;DHT22;38739;53.324;6.862;2023-07-20T09:17:35;21.20;99.90
52867;DHT22;38739;53.324;6.862;2023-07-20T09:20:05;21.40;99.90
52867;DHT22;38739;53.324;6.862;2023-07-20T09:22:37;21.60;99.90
52867;DHT22;38739;53.324;6.862;2023-07-20T09:25:19;21.90;99.90
52867;DHT22;38739;53.324;6.862;2023-07-20T09:27:47;22.00;99.90
52867;DHT22;38739;53.324;6.862;2023-07-20T09:30:14;22.30;99.90
52867;DHT22;38739;53.324;6.862;2023-07-20T09:32:44;22.40;99.90
52867;DHT22;38739;53.324;6.862;2023-07-20T09:35:18;22.60;99.90
52867;DHT22;38739;53.324;6.862;2023-07-20T09:37:51;22.70;99.90
52867;DHT22;38739;53.324;6.862;2023-07-20T09:40:20;22.80;99.90
52867;DHT22;38739;53.324;6.862;2023-07-20T09:42:47;23.00;99.90
52867;DHT22;38739;53.324;6.862;2023-07-20T09:45:13;23.30;99.90
52867;DHT22;38739;53.324;6.862;2023-07-20T09:47:40;23.70;99.90
52867;DHT22;38739;53.324;6.862;2023-07-20T09:50:07;23.90;99.90
52867;DHT22;38739;53.324;6.862;2023-07-20T09:52:42;23.90;99.90
52867;DHT22;38739;53.324;6.862;2023-07-20T09:55:12;23.40;99.90
52867;DHT22;38739;53.324;6.862;2023-07-20T09:57:38;23.20;99.90
52867;DHT22;38739;53.324;6.862;2023-07-20T10:00:06;23.30;99.90
52867;DHT22;38739;53.324;6.862;2023-07-20T10:02:42;23.60;99.90
52867;DHT22;38739;53.324;6.862;2023-07-20T10:05:13;23.80;99.90
52867;DHT22;38739;53.324;6.862;2023-07-20T10:07:50;24.00;99.90
52867;DHT22;38739;53.324;6.862;2023-07-20T10:10:17;24.20;99.90
52867;DHT22;38739;53.324;6.862;2023-07-20T10:12:48;24.30;99.90
52867;DHT22;38739;53.324;6.862;2023-07-20T10:15:33;24.60;99.40
52867;DHT22;38739;53.324;6.862;2023-07-20T10:20:59;24.40;97.50
52867;DHT22;38739;53.324;6.862;2023-07-20T10:23:28;24.10;95.70
52867;DHT22;38739;53.324;6.862;2023-07-20T10:25:54;24.10;97.40
52867;DHT22;38739;53.324;6.862;2023-07-20T10:28:20;24.40;99.50
52867;DHT22;38739;53.324;6.862;2023-07-20T10:30:49;24.60;97.50
52867;DHT22;38739;53.324;6.862;2023-07-20T10:33:17;24.80;98.30
52867;DHT22;38739;53.324;6.862;2023-07-20T10:35:55;25.00;96.70
52867;DHT22;38739;53.324;6.862;2023-07-20T10:41:17;25.40;94.30
52867;DHT22;38739;53.324;6.862;2023-07-20T10:43:44;25.60;93.00
52867;DHT22;38739;53.324;6.862;2023-07-20T10:46:14;25.70;93.30
52867;DHT22;38739;53.324;6.862;2023-07-20T10:48:59;25.70;93.60
52867;DHT22;38739;53.324;6.862;2023-07-20T10:51:26;25.70;93.00
52867;DHT22;38739;53.324;6.862;2023-07-20T10:53:51;25.80;93.50
52867;DHT22;38739;53.324;6.862;2023-07-20T10:56:22;25.80;91.00
52867;DHT22;38739;53.324;6.862;2023-07-20T10:58:49;25.90;91.20
52867;DHT22;38739;53.324;6.862;2023-07-20T11:01:16;26.00;90.70
52867;DHT22;38739;53.324;6.862;2023-07-20T11:03:43;26.30;91.80
52867;DHT22;38739;53.324;6.862;2023-07-20T11:09:08;26.40;84.00
52867;DHT22;38739;53.324;6.862;2023-07-20T11:11:37;25.80;80.90
52867;DHT22;38739;53.324;6.862;2023-07-20T11:14:09;25.30;88.20
52867;DHT22;38739;53.324;6.862;2023-07-20T11:16:43;25.10;88.60
52867;DHT22;38739;53.324;6.862;2023-07-20T11:19:20;25.40;87.20
52867;DHT22;38739;53.324;6.862;2023-07-20T11:21:49;25.50;86.80
52867;DHT22;38739;53.324;6.862;2023-07-20T11:24:16;25.90;90.40
52867;DHT22;38739;53.324;6.862;2023-07-20T11:29:08;26.60;84.50
52867;DHT22;38739;53.324;6.862;2023-07-20T11:31:41;26.80;81.10
52867;DHT22;38739;53.324;6.862;2023-07-20T11:34:11;26.90;80.00
52867;DHT22;38739;53.324;6.862;2023-07-20T11:36:42;27.30;85.40
52867;DHT22;38739;53.324;6.862;2023-07-20T11:39:18;27.30;81.70
52867;DHT22;38739;53.324;6.862;2023-07-20T11:41:52;27.60;80.30
52867;DHT22;38739;53.324;6.862;2023-07-20T11:44:22;27.90;80.00
52867;DHT22;38739;53.324;6.862;2023-07-20T11:47:01;27.70;80.30
52867;DHT22;38739;53.324;6.862;2023-07-20T11:49:29;27.90;77.00
52867;DHT22;38739;53.324;6.862;2023-07-20T11:51:56;27.80;74.50
52867;DHT22;38739;53.324;6.862;2023-07-20T11:54:22;27.90;74.70
52867;DHT22;38739;53.324;6.862;2023-07-20T11:56:48;28.10;74.50
52867;DHT22;38739;53.324;6.862;2023-07-20T11:59:14;28.30;74.30
52867;DHT22;38739;53.324;6.862;2023-07-20T12:01:39;28.40;74.00
52867;DHT22;38739;53.324;6.862;2023-07-20T12:04:06;28.70;77.00
52867;DHT22;38739;53.324;6.862;2023-07-20T12:06:32;28.90;73.50
52867;DHT22;38739;53.324;6.862;2023-07-20T12:08:58;29.00;71.10
52867;DHT22;38739;53.324;6.862;2023-07-20T12:11:36;29.00;71.80
52867;DHT22;38739;53.324;6.862;2023-07-20T12:14:03;29.30;73.80
52867;DHT22;38739;53.324;6.862;2023-07-20T12:16:29;29.50;73.40
52867;DHT22;38739;53.324;6.862;2023-07-20T12:19:03;29.50;71.50
52867;DHT22;38739;53.324;6.862;2023-07-20T12:21:30;29.70;71.40
52867;DHT22;38739;53.324;6.862;2023-07-20T12:23:57;30.10;71.90
52867;DHT22;38739;53.324;6.862;2023-07-20T12:26:24;29.90;71.70
52867;DHT22;38739;53.324;6.862;2023-07-20T12:28:51;29.80;70.90
52867;DHT22;38739;53.324;6.862;2023-07-20T12:31:17;29.90;68.60
52867;DHT22;38739;53.324;6.862;2023-07-20T12:33:43;29.60;64.70
52867;DHT22;38739;53.324;6.862;2023-07-20T12:36:09;29.70;67.10
52867;DHT22;38739;53.324;6.862;2023-07-20T12:38:35;29.60;68.00
52867;DHT22;38739;53.324;6.862;2023-07-20T12:41:02;29.50;70.40
52867;DHT22;38739;53.324;6.862;2023-07-20T12:43:28;29.80;68.90
52867;DHT22;38739;53.324;6.862;2023-07-20T12:45:55;29.90;67.60
52867;DHT22;38739;53.324;6.862;2023-07-20T12:48:21;29.60;65.40
52867;DHT22;38739;53.324;6.862;2023-07-20T12:50:47;30.00;66.30
52867;DHT22;38739;53.324;6.862;2023-07-20T12:53:14;30.00;66.60
52867;DHT22;38739;53.324;6.862;2023-07-20T12:55:40;30.10;68.90
52867;DHT22;38739;53.324;6.862;2023-07-20T12:58:07;29.90;66.80
52867;DHT22;38739;53.324;6.862;2023-07-20T13:00:33;29.30;65.00
52867;DHT22;38739;53.324;6.862;2023-07-20T13:02:59;29.20;66.00
52867;DHT22;38739;53.324;6.862;2023-07-20T13:05:25;29.20;65.10
52867;DHT22;38739;53.324;6.862;2023-07-20T13:07:51;29.10;67.50
52867;DHT22;38739;53.324;6.862;2023-07-20T13:10:17;29.10;67.70
52867;DHT22;38739;53.324;6.862;2023-07-20T13:12:43;28.80;69.20
52867;DHT22;38739;53.324;6.862;2023-07-20T13:15:10;28.80;70.50
52867;DHT22;38739;53.324;6.862;2023-07-20T13:17:37;28.60;68.90
52867;DHT22;38739;53.324;6.862;2023-07-20T13:20:04;28.40;68.10
52867;DHT22;38739;53.324;6.862;2023-07-20T13:22:31;28.20;69.60
52867;DHT22;38739;53.324;6.862;2023-07-20T13:24:57;27.80;69.10
52867;DHT22;38739;53.324;6.862;2023-07-20T13:27:23;27.50;69.20
52867;DHT22;38739;53.324;6.862;2023-07-20T13:29:51;27.40;70.80
52867;DHT22;38739;53.324;6.862;2023-07-20T13:32:17;27.20;70.10
52867;DHT22;38739;53.324;6.862;2023-07-20T13:34:46;27.00;70.40
52867;DHT22;38739;53.324;6.862;2023-07-20T13:37:12;26.80;70.30
52867;DHT22;38739;53.324;6.862;2023-07-20T13:39:39;26.40;70.90
52867;DHT22;38739;53.324;6.862;2023-07-20T13:42:05;26.30;74.20
52867;DHT22;38739;53.324;6.862;2023-07-20T13:44:34;26.10;74.60
52867;DHT22;38739;53.324;6.862;2023-07-20T13:47:01;26.10;74.40
52867;DHT22;38739;53.324;6.862;2023-07-20T13:49:27;25.90;73.60
52867;DHT22;38739;53.324;6.862;2023-07-20T13:51:53;25.70;71.90
52867;DHT22;38739;53.324;6.862;2023-07-20T13:54:18;25.60;74.10
52867;DHT22;38739;53.324;6.862;2023-07-20T13:56:44;25.50;72.90
52867;DHT22;38739;53.324;6.862;2023-07-20T13:59:10;25.50;74.80
52867;DHT22;38739;53.324;6.862;2023-07-20T14:01:36;25.30;73.40
52867;DHT22;38739;53.324;6.862;2023-07-20T14:04:02;25.20;75.20
52867;DHT22;38739;53.324;6.862;2023-07-20T14:06:30;25.30;76.20
52867;DHT22;38739;53.324;6.862;2023-07-20T14:08:56;25.30;74.20
52867;DHT22;38739;53.324;6.862;2023-07-20T14:11:23;25.20;74.30
52867;DHT22;38739;53.324;6.862;2023-07-20T14:13:49;25.10;75.00
52867;DHT22;38739;53.324;6.862;2023-07-20T14:16:16;25.00;75.30
52867;DHT22;38739;53.324;6.862;2023-07-20T14:18:42;25.10;76.60
52867;DHT22;38739;53.324;6.862;2023-07-20T14:21:08;25.20;74.90
52867;DHT22;38739;53.324;6.862;2023-07-20T14:23:33;25.30;77.00
52867;DHT22;38739;53.324;6.862;2023-07-20T14:25:59;25.30;73.90
52867;DHT22;38739;53.324;6.862;2023-07-20T14:28:25;25.10;75.80
52867;DHT22;38739;53.324;6.862;2023-07-20T14:30:51;25.00;73.70
52867;DHT22;38739;53.324;6.862;2023-07-20T14:33:16;24.80;75.80
52867;DHT22;38739;53.324;6.862;2023-07-20T14:35:42;24.70;75.10
52867;DHT22;38739;53.324;6.862;2023-07-20T14:38:08;24.60;75.20
52867;DHT22;38739;53.324;6.862;2023-07-20T14:40:33;24.60;75.40
52867;DHT22;38739;53.324;6.862;2023-07-20T14:42:59;24.50;74.90
52867;DHT22;38739;53.324;6.862;2023-07-20T14:45:27;24.60;75.80
52867;DHT22;38739;53.324;6.862;2023-07-20T14:47:53;24.90;77.20
52867;DHT22;38739;53.324;6.862;2023-07-20T14:50:22;25.30;75.90
52867;DHT22;38739;53.324;6.862;2023-07-20T14:52:48;25.80;76.90
52867;DHT22;38739;53.324;6.862;2023-07-20T14:55:14;25.90;74.00
52867;DHT22;38739;53.324;6.862;2023-07-20T14:57:40;25.90;74.50
52867;DHT22;38739;53.324;6.862;2023-07-20T15:00:06;26.00;75.70
52867;DHT22;38739;53.324;6.862;2023-07-20T15:02:34;26.10;73.10
52867;DHT22;38739;53.324;6.862;2023-07-20T15:05:00;26.10;73.50
52867;DHT22;38739;53.324;6.862;2023-07-20T15:07:25;26.30;74.40
52867;DHT22;38739;53.324;6.862;2023-07-20T15:09:51;26.20;72.20
52867;DHT22;38739;53.324;6.862;2023-07-20T15:12:17;26.00;73.40
52867;DHT22;38739;53.324;6.862;2023-07-20T15:14:43;25.60;74.30
52867;DHT22;38739;53.324;6.862;2023-07-20T15:17:10;25.30;74.80
52867;DHT22;38739;53.324;6.862;2023-07-20T15:19:36;25.10;75.00
52867;DHT22;38739;53.324;6.862;2023-07-20T15:22:02;25.00;76.30
52867;DHT22;38739;53.324;6.862;2023-07-20T15:24:29;25.00;73.90
52867;DHT22;38739;53.324;6.862;2023-07-20T15:26:55;24.70;74.90
52867;DHT22;38739;53.324;6.862;2023-07-20T15:29:23;24.50;76.40
52867;DHT22;38739;53.324;6.862;2023-07-20T15:31:48;24.20;76.80
52867;DHT22;38739;53.324;6.862;2023-07-20T15:34:14;24.00;76.80
52867;DHT22;38739;53.324;6.862;2023-07-20T15:36:41;23.80;77.90
52867;DHT22;38739;53.324;6.862;2023-07-20T15:39:07;23.70;79.30
52867;DHT22;38739;53.324;6.862;2023-07-20T15:41:33;23.50;78.00
52867;DHT22;38739;53.324;6.862;2023-07-20T15:43:59;23.30;78.60
52867;DHT22;38739;53.324;6.862;2023-07-20T15:49:06;23.10;81.60
52867;DHT22;38739;53.324;6.862;2023-07-20T15:51:35;23.00;82.30
52867;DHT22;38739;53.324;6.862;2023-07-20T15:54:09;23.00;83.40